sensor_id;sensor_type;location;lat;lon;timestamp;P1;durP1;ratioP1;P2;durP2;ratioP2
6420;SDS011;3243;50.958;7.012;2022-10-30T00:02:22;12.57;;;5.67;;
6420;SDS011;3243;50.958;7.012;2022-10-30T00:04:49;11.97;;;5.70;;
6420;SDS011;3243;50.958;7.012;2022-10-30T00:07:16;10.30;;;5.87;;
6420;SDS011;3243;50.958;7.012;2022-10-30T00:09:42;10.47;;;5.37;;
6420;SDS011;3243;50.958;7.012;2022-10-30T00:12:09;11.77;;;5.47;;
6420;SDS011;3243;50.958;7.012;2022-10-30T00:14:36;13.00;;;6.40;;
6420;SDS011;3243;50.958;7.012;2022-10-30T00:17:02;8.80;;;5.10;;
6420;SDS011;3243;50.958;7.012;2022-10-30T00:19:29;12.60;;;5.17;;
6420;SDS011;3243;50.958;7.012;2022-10-30T00:21:56;9.50;;;6.07;;
6420;SDS011;3243;50.958;7.012;2022-10-30T00:24:21;12.53;;;5.73;;
6420;SDS011;3243;50.958;7.012;2022-10-30T00:26:48;7.97;;;5.87;;
6420;SDS011;3243;50.958;7.012;2022-10-30T00:29:15;8.57;;;5.60;;
6420;SDS011;3243;50.958;7.012;2022-10-30T00:31:42;11.57;;;5.60;;
6420;SDS011;3243;50.958;7.012;2022-10-30T00:34:08;13.80;;;5.67;;
6420;SDS011;3243;50.958;7.012;2022-10-30T00:36:35;12.53;;;5.77;;
6420;SDS011;3243;50.958;7.012;2022-10-30T00:39:03;12.00;;;5.50;;
6420;SDS011;3243;50.958;7.012;2022-10-30T00:41:30;12.13;;;6.03;;
6420;SDS011;3243;50.958;7.012;2022-10-30T00:43:57;8.70;;;5.60;;
6420;SDS011;3243;50.958;7.012;2022-10-30T00:49:09;12.87;;;6.17;;
6420;SDS011;3243;50.958;7.012;2022-10-30T00:51:40;9.97;;;5.60;;
6420;SDS011;3243;50.958;7.012;2022-10-30T00:54:09;12.20;;;5.30;;
6420;SDS011;3243;50.958;7.012;2022-10-30T00:56:38;9.43;;;5.47;;
6420;SDS011;3243;50.958;7.012;2022-10-30T00:59:06;10.50;;;5.53;;
6420;SDS011;3243;50.958;7.012;2022-10-30T01:01:37;13.40;;;5.97;;
6420;SDS011;3243;50.958;7.012;2022-10-30T01:04:07;10.70;;;5.40;;
6420;SDS011;3243;50.958;7.012;2022-10-30T01:06:35;12.67;;;5.63;;
6420;SDS011;3243;50.958;7.012;2022-10-30T01:09:05;10.07;;;5.40;;
6420;SDS011;3243;50.958;7.012;2022-10-30T01:11:31;12.57;;;5.60;;
6420;SDS011;3243;50.958;7.012;2022-10-30T01:14:02;15.23;;;5.67;;
6420;SDS011;3243;50.958;7.012;2022-10-30T01:19:01;14.00;;;6.23;;
6420;SDS011;3243;50.958;7.012;2022-10-30T01:29:59;13.00;;;6.10;;
6420;SDS011;3243;50.958;7.012;2022-10-30T01:35:19;9.10;;;5.80;;
6420;SDS011;3243;50.958;7.012;2022-10-30T01:38:06;10.03;;;6.30;;
6420;SDS011;3243;50.958;7.012;2022-10-30T01:40:49;10.63;;;6.00;;
6420;SDS011;3243;50.958;7.012;2022-10-30T01:43:15;15.53;;;6.33;;
6420;SDS011;3243;50.958;7.012;2022-10-30T01:45:51;10.73;;;5.90;;
6420;SDS011;3243;50.958;7.012;2022-10-30T01:57:07;10.90;;;6.10;;
6420;SDS011;3243;50.958;7.012;2022-10-30T02:00:05;11.47;;;6.70;;
6420;SDS011;3243;50.958;7.012;2022-10-30T02:02:34;14.50;;;6.80;;
6420;SDS011;3243;50.958;7.012;2022-10-30T02:05:02;12.43;;;6.13;;
6420;SDS011;3243;50.958;7.012;2022-10-30T02:07:31;11.87;;;5.93;;
6420;SDS011;3243;50.958;7.012;2022-10-30T02:09:58;14.07;;;5.77;;
6420;SDS011;3243;50.958;7.012;2022-10-30T02:12:24;12.80;;;6.70;;
6420;SDS011;3243;50.958;7.012;2022-10-30T02:14:53;10.60;;;5.77;;
6420;SDS011;3243;50.958;7.012;2022-10-30T02:17:23;11.17;;;6.20;;
6420;SDS011;3243;50.958;7.012;2022-10-30T02:19:50;10.53;;;6.17;;
6420;SDS011;3243;50.958;7.012;2022-10-30T02:22:17;10.53;;;5.63;;
6420;SDS011;3243;50.958;7.012;2022-10-30T02:24:44;13.67;;;6.10;;
6420;SDS011;3243;50.958;7.012;2022-10-30T02:27:11;11.60;;;5.90;;
6420;SDS011;3243;50.958;7.012;2022-10-30T02:29:37;12.40;;;6.60;;
6420;SDS011;3243;50.958;7.012;2022-10-30T02:32:04;10.67;;;6.47;;
6420;SDS011;3243;50.958;7.012;2022-10-30T02:34:31;12.77;;;6.07;;
6420;SDS011;3243;50.958;7.012;2022-10-30T02:36:58;13.70;;;7.00;;
6420;SDS011;3243;50.958;7.012;2022-10-30T02:39:25;11.37;;;6.30;;
6420;SDS011;3243;50.958;7.012;2022-10-30T02:41:51;12.30;;;6.90;;
6420;SDS011;3243;50.958;7.012;2022-10-30T02:44:18;13.63;;;6.30;;
6420;SDS011;3243;50.958;7.012;2022-10-30T02:46:44;13.70;;;6.47;;
6420;SDS011;3243;50.958;7.012;2022-10-30T02:49:11;9.00;;;6.70;;
6420;SDS011;3243;50.958;7.012;2022-10-30T02:51:38;9.50;;;6.67;;
6420;SDS011;3243;50.958;7.012;2022-10-30T02:54:04;11.93;;;6.53;;
6420;SDS011;3243;50.958;7.012;2022-10-30T02:56:31;10.47;;;7.00;;
6420;SDS011;3243;50.958;7.012;2022-10-30T02:58:58;13.37;;;6.67;;
6420;SDS011;3243;50.958;7.012;2022-10-30T03:01:24;13.07;;;7.00;;
6420;SDS011;3243;50.958;7.012;2022-10-30T03:03:51;8.97;;;6.40;;
6420;SDS011;3243;50.958;7.012;2022-10-30T03:06:18;11.77;;;6.60;;
6420;SDS011;3243;50.958;7.012;2022-10-30T03:08:44;10.57;;;7.13;;
6420;SDS011;3243;50.958;7.012;2022-10-30T03:11:12;13.70;;;7.83;;
6420;SDS011;3243;50.958;7.012;2022-10-30T03:13:41;13.30;;;7.93;;
6420;SDS011;3243;50.958;7.012;2022-10-30T03:16:10;14.57;;;8.23;;
6420;SDS011;3243;50.958;7.012;2022-10-30T03:18:39;13.37;;;8.53;;
6420;SDS011;3243;50.958;7.012;2022-10-30T03:21:06;14.33;;;8.47;;
6420;SDS011;3243;50.958;7.012;2022-10-30T03:23:35;11.50;;;7.87;;
6420;SDS011;3243;50.958;7.012;2022-10-30T03:26:02;12.80;;;7.90;;
6420;SDS011;3243;50.958;7.012;2022-10-30T03:28:29;15.10;;;8.20;;
6420;SDS011;3243;50.958;7.012;2022-10-30T03:30:57;11.63;;;8.30;;
6420;SDS011;3243;50.958;7.012;2022-10-30T03:33:29;12.50;;;7.30;;
6420;SDS011;3243;50.958;7.012;2022-10-30T03:35:57;12.73;;;7.20;;
6420;SDS011;3243;50.958;7.012;2022-10-30T03:38:24;10.27;;;7.30;;
6420;SDS011;3243;50.958;7.012;2022-10-30T03:40:51;13.40;;;7.30;;
6420;SDS011;3243;50.958;7.012;2022-10-30T03:43:19;10.60;;;7.30;;
6420;SDS011;3243;50.958;7.012;2022-10-30T03:45:46;14.67;;;7.77;;
6420;SDS011;3243;50.958;7.012;2022-10-30T03:48:17;14.77;;;7.67;;
6420;SDS011;3243;50.958;7.012;2022-10-30T03:50:45;16.63;;;7.63;;
6420;SDS011;3243;50.958;7.012;2022-10-30T03:53:12;12.30;;;7.10;;
6420;SDS011;3243;50.958;7.012;2022-10-30T03:55:39;15.33;;;7.30;;
6420;SDS011;3243;50.958;7.012;2022-10-30T03:58:06;13.17;;;7.40;;
6420;SDS011;3243;50.958;7.012;2022-10-30T04:00:33;11.20;;;7.23;;
6420;SDS011;3243;50.958;7.012;2022-10-30T04:03:01;10.57;;;7.10;;
6420;SDS011;3243;50.958;7.012;2022-10-30T04:05:31;12.03;;;7.10;;
6420;SDS011;3243;50.958;7.012;2022-10-30T04:07:58;13.80;;;7.10;;
6420;SDS011;3243;50.958;7.012;2022-10-30T04:10:26;12.83;;;7.10;;
6420;SDS011;3243;50.958;7.012;2022-10-30T04:13:03;10.37;;;6.90;;
6420;SDS011;3243;50.958;7.012;2022-10-30T04:15:32;12.90;;;6.70;;
6420;SDS011;3243;50.958;7.012;2022-10-30T04:17:59;12.37;;;6.87;;
6420;SDS011;3243;50.958;7.012;2022-10-30T04:20:27;11.70;;;6.67;;
6420;SDS011;3243;50.958;7.012;2022-10-30T04:23:02;10.03;;;7.20;;
6420;SDS011;3243;50.958;7.012;2022-10-30T04:25:30;13.07;;;7.50;;
6420;SDS011;3243;50.958;7.012;2022-10-30T04:27:59;11.60;;;7.17;;
6420;SDS011;3243;50.958;7.012;2022-10-30T04:30:26;10.03;;;6.50;;
6420;SDS011;3243;50.958;7.012;2022-10-30T04:32:53;14.50;;;7.50;;
6420;SDS011;3243;50.958;7.012;2022-10-30T04:35:25;12.03;;;7.13;;
6420;SDS011;3243;50.958;7.012;2022-10-30T04:40:33;12.70;;;6.63;;
6420;SDS011;3243;50.958;7.012;2022-10-30T04:43:05;12.40;;;7.27;;
6420;SDS011;3243;50.958;7.012;2022-10-30T04:45:33;13.60;;;7.87;;
6420;SDS011;3243;50.958;7.012;2022-10-30T04:48:03;10.70;;;7.27;;
6420;SDS011;3243;50.958;7.012;2022-10-30T04:50:32;14.33;;;7.43;;
6420;SDS011;3243;50.958;7.012;2022-10-30T04:53:23;14.10;;;6.70;;
6420;SDS011;3243;50.958;7.012;2022-10-30T04:55:46;10.60;;;7.00;;
6420;SDS011;3243;50.958;7.012;2022-10-30T04:58:13;17.97;;;7.40;;
6420;SDS011;3243;50.958;7.012;2022-10-30T05:00:40;13.57;;;6.83;;
6420;SDS011;3243;50.958;7.012;2022-10-30T05:03:08;12.53;;;7.00;;
6420;SDS011;3243;50.958;7.012;2022-10-30T05:05:41;9.47;;;7.17;;
6420;SDS011;3243;50.958;7.012;2022-10-30T05:08:08;14.73;;;8.00;;
6420;SDS011;3243;50.958;7.012;2022-10-30T05:10:37;14.87;;;9.70;;
6420;SDS011;3243;50.958;7.012;2022-10-30T05:13:05;16.07;;;11.63;;
6420;SDS011;3243;50.958;7.012;2022-10-30T05:15:33;20.17;;;11.90;;
6420;SDS011;3243;50.958;7.012;2022-10-30T05:18:00;19.37;;;11.57;;
6420;SDS011;3243;50.958;7.012;2022-10-30T05:20:27;16.43;;;10.17;;
6420;SDS011;3243;50.958;7.012;2022-10-30T05:22:54;17.57;;;9.70;;
6420;SDS011;3243;50.958;7.012;2022-10-30T05:25:22;16.30;;;9.27;;
6420;SDS011;3243;50.958;7.012;2022-10-30T05:27:50;16.13;;;8.97;;
6420;SDS011;3243;50.958;7.012;2022-10-30T05:30:22;12.80;;;8.00;;
6420;SDS011;3243;50.958;7.012;2022-10-30T05:32:49;14.87;;;7.60;;
6420;SDS011;3243;50.958;7.012;2022-10-30T05:35:16;16.53;;;7.40;;
6420;SDS011;3243;50.958;7.012;2022-10-30T05:37:42;11.87;;;7.30;;
6420;SDS011;3243;50.958;7.012;2022-10-30T05:40:09;15.57;;;8.00;;
6420;SDS011;3243;50.958;7.012;2022-10-30T05:42:36;11.50;;;7.17;;
6420;SDS011;3243;50.958;7.012;2022-10-30T05:45:02;11.47;;;6.93;;
6420;SDS011;3243;50.958;7.012;2022-10-30T05:47:30;12.90;;;6.80;;
6420;SDS011;3243;50.958;7.012;2022-10-30T05:49:57;13.90;;;7.80;;
6420;SDS011;3243;50.958;7.012;2022-10-30T05:52:23;14.00;;;7.30;;
6420;SDS011;3243;50.958;7.012;2022-10-30T05:54:50;11.27;;;7.23;;
6420;SDS011;3243;50.958;7.012;2022-10-30T05:57:17;13.27;;;7.30;;
6420;SDS011;3243;50.958;7.012;2022-10-30T05:59:43;12.53;;;7.43;;
6420;SDS011;3243;50.958;7.012;2022-10-30T06:02:10;17.50;;;7.80;;
6420;SDS011;3243;50.958;7.012;2022-10-30T06:04:37;15.10;;;7.43;;
6420;SDS011;3243;50.958;7.012;2022-10-30T06:07:03;11.23;;;7.00;;
6420;SDS011;3243;50.958;7.012;2022-10-30T06:09:30;18.30;;;11.77;;
6420;SDS011;3243;50.958;7.012;2022-10-30T06:11:57;17.83;;;11.20;;
6420;SDS011;3243;50.958;7.012;2022-10-30T06:14:23;16.63;;;9.73;;
6420;SDS011;3243;50.958;7.012;2022-10-30T06:16:50;17.13;;;10.03;;
6420;SDS011;3243;50.958;7.012;2022-10-30T06:19:17;17.57;;;12.00;;
6420;SDS011;3243;50.958;7.012;2022-10-30T06:21:44;20.63;;;11.90;;
6420;SDS011;3243;50.958;7.012;2022-10-30T06:24:11;16.90;;;11.40;;
6420;SDS011;3243;50.958;7.012;2022-10-30T06:26:39;17.67;;;11.00;;
6420;SDS011;3243;50.958;7.012;2022-10-30T06:29:05;19.27;;;9.27;;
6420;SDS011;3243;50.958;7.012;2022-10-30T06:31:32;14.27;;;9.20;;
6420;SDS011;3243;50.958;7.012;2022-10-30T06:33:59;14.77;;;9.13;;
6420;SDS011;3243;50.958;7.012;2022-10-30T06:36:25;16.33;;;9.37;;
6420;SDS011;3243;50.958;7.012;2022-10-30T06:38:52;14.23;;;9.37;;
6420;SDS011;3243;50.958;7.012;2022-10-30T06:41:19;16.10;;;8.87;;
6420;SDS011;3243;50.958;7.012;2022-10-30T06:43:55;16.10;;;9.07;;
6420;SDS011;3243;50.958;7.012;2022-10-30T06:46:21;14.10;;;8.27;;
6420;SDS011;3243;50.958;7.012;2022-10-30T06:48:55;11.97;;;8.10;;
6420;SDS011;3243;50.958;7.012;2022-10-30T06:51:22;16.73;;;7.87;;
6420;SDS011;3243;50.958;7.012;2022-10-30T06:53:49;14.37;;;8.57;;
6420;SDS011;3243;50.958;7.012;2022-10-30T06:56:16;14.83;;;8.10;;
6420;SDS011;3243;50.958;7.012;2022-10-30T06:58:42;14.90;;;8.40;;
6420;SDS011;3243;50.958;7.012;2022-10-30T07:01:09;14.80;;;8.57;;
6420;SDS011;3243;50.958;7.012;2022-10-30T07:03:36;13.90;;;8.67;;
6420;SDS011;3243;50.958;7.012;2022-10-30T07:06:03;17.20;;;9.10;;
6420;SDS011;3243;50.958;7.012;2022-10-30T07:08:29;13.00;;;8.57;;
6420;SDS011;3243;50.958;7.012;2022-10-30T07:10:56;15.60;;;8.03;;
6420;SDS011;3243;50.958;7.012;2022-10-30T07:13:23;13.23;;;8.80;;
6420;SDS011;3243;50.958;7.012;2022-10-30T07:15:50;14.43;;;8.67;;
6420;SDS011;3243;50.958;7.012;2022-10-30T07:18:17;19.87;;;8.80;;
6420;SDS011;3243;50.958;7.012;2022-10-30T07:20:43;14.30;;;8.87;;
6420;SDS011;3243;50.958;7.012;2022-10-30T07:23:10;12.77;;;8.17;;
6420;SDS011;3243;50.958;7.012;2022-10-30T07:25:37;13.87;;;8.37;;
6420;SDS011;3243;50.958;7.012;2022-10-30T07:28:03;13.03;;;8.07;;
6420;SDS011;3243;50.958;7.012;2022-10-30T07:30:30;17.30;;;8.07;;
6420;SDS011;3243;50.958;7.012;2022-10-30T07:33:01;11.50;;;8.10;;
6420;SDS011;3243;50.958;7.012;2022-10-30T07:35:30;16.03;;;7.93;;
6420;SDS011;3243;50.958;7.012;2022-10-30T07:38:04;13.27;;;8.10;;
6420;SDS011;3243;50.958;7.012;2022-10-30T07:40:32;19.33;;;8.53;;
6420;SDS011;3243;50.958;7.012;2022-10-30T07:42:59;13.83;;;7.80;;
6420;SDS011;3243;50.958;7.012;2022-10-30T07:45:28;14.13;;;8.30;;
6420;SDS011;3243;50.958;7.012;2022-10-30T07:47:55;13.03;;;7.93;;
6420;SDS011;3243;50.958;7.012;2022-10-30T07:50:23;15.23;;;8.03;;
6420;SDS011;3243;50.958;7.012;2022-10-30T07:52:50;16.10;;;7.30;;
6420;SDS011;3243;50.958;7.012;2022-10-30T07:55:16;13.17;;;7.47;;
6420;SDS011;3243;50.958;7.012;2022-10-30T07:57:46;15.80;;;7.17;;
6420;SDS011;3243;50.958;7.012;2022-10-30T08:00:13;13.60;;;7.17;;
6420;SDS011;3243;50.958;7.012;2022-10-30T08:02:40;14.80;;;7.57;;
6420;SDS011;3243;50.958;7.012;2022-10-30T08:05:08;12.37;;;7.43;;
6420;SDS011;3243;50.958;7.012;2022-10-30T08:07:36;14.70;;;8.23;;
6420;SDS011;3243;50.958;7.012;2022-10-30T08:10:04;10.63;;;6.87;;
6420;SDS011;3243;50.958;7.012;2022-10-30T08:12:32;13.07;;;7.40;;
6420;SDS011;3243;50.958;7.012;2022-10-30T08:15:00;14.50;;;6.77;;
6420;SDS011;3243;50.958;7.012;2022-10-30T08:17:26;11.63;;;6.73;;
6420;SDS011;3243;50.958;7.012;2022-10-30T08:19:53;12.17;;;7.20;;
6420;SDS011;3243;50.958;7.012;2022-10-30T08:22:22;15.03;;;7.37;;
6420;SDS011;3243;50.958;7.012;2022-10-30T08:24:49;15.63;;;7.20;;
6420;SDS011;3243;50.958;7.012;2022-10-30T08:27:15;15.87;;;7.27;;
6420;SDS011;3243;50.958;7.012;2022-10-30T08:29:42;11.43;;;6.17;;
6420;SDS011;3243;50.958;7.012;2022-10-30T08:32:09;15.23;;;7.23;;
6420;SDS011;3243;50.958;7.012;2022-10-30T08:34:35;12.80;;;6.20;;
6420;SDS011;3243;50.958;7.012;2022-10-30T08:37:02;11.20;;;5.97;;
6420;SDS011;3243;50.958;7.012;2022-10-30T08:39:29;11.93;;;6.07;;
6420;SDS011;3243;50.958;7.012;2022-10-30T08:41:56;13.57;;;6.00;;
6420;SDS011;3243;50.958;7.012;2022-10-30T08:44:24;11.17;;;5.80;;
6420;SDS011;3243;50.958;7.012;2022-10-30T08:46:51;8.97;;;5.40;;
6420;SDS011;3243;50.958;7.012;2022-10-30T08:49:17;12.97;;;6.00;;
6420;SDS011;3243;50.958;7.012;2022-10-30T08:51:44;13.53;;;5.67;;
6420;SDS011;3243;50.958;7.012;2022-10-30T08:54:11;9.77;;;5.90;;
6420;SDS011;3243;50.958;7.012;2022-10-30T08:56:38;14.17;;;5.73;;
6420;SDS011;3243;50.958;7.012;2022-10-30T08:59:04;13.60;;;6.07;;
6420;SDS011;3243;50.958;7.012;2022-10-30T09:01:31;14.00;;;5.90;;
6420;SDS011;3243;50.958;7.012;2022-10-30T09:03:58;12.17;;;6.10;;
6420;SDS011;3243;50.958;7.012;2022-10-30T09:06:24;9.10;;;5.53;;
6420;SDS011;3243;50.958;7.012;2022-10-30T09:08:51;11.70;;;5.67;;
6420;SDS011;3243;50.958;7.012;2022-10-30T09:11:18;11.10;;;5.57;;
6420;SDS011;3243;50.958;7.012;2022-10-30T09:13:44;13.17;;;5.40;;
6420;SDS011;3243;50.958;7.012;2022-10-30T09:16:11;12.53;;;5.57;;
6420;SDS011;3243;50.958;7.012;2022-10-30T09:18:38;14.83;;;6.00;;
6420;SDS011;3243;50.958;7.012;2022-10-30T09:21:05;13.97;;;5.73;;
6420;SDS011;3243;50.958;7.012;2022-10-30T09:23:31;10.47;;;5.37;;
6420;SDS011;3243;50.958;7.012;2022-10-30T09:25:58;16.20;;;6.53;;
6420;SDS011;3243;50.958;7.012;2022-10-30T09:28:25;13.10;;;5.40;;
6420;SDS011;3243;50.958;7.012;2022-10-30T09:30:51;14.67;;;5.80;;
6420;SDS011;3243;50.958;7.012;2022-10-30T09:33:21;9.13;;;5.37;;
6420;SDS011;3243;50.958;7.012;2022-10-30T09:35:48;13.57;;;5.27;;
6420;SDS011;3243;50.958;7.012;2022-10-30T09:38:15;10.50;;;5.10;;
6420;SDS011;3243;50.958;7.012;2022-10-30T09:49:08;10.47;;;5.50;;
6420;SDS011;3243;50.958;7.012;2022-10-30T09:54:26;11.97;;;5.30;;
6420;SDS011;3243;50.958;7.012;2022-10-30T10:00:39;12.53;;;5.67;;
6420;SDS011;3243;50.958;7.012;2022-10-30T10:03:24;13.10;;;5.30;;
6420;SDS011;3243;50.958;7.012;2022-10-30T10:06:02;12.43;;;4.87;;
6420;SDS011;3243;50.958;7.012;2022-10-30T10:08:32;11.67;;;5.20;;
6420;SDS011;3243;50.958;7.012;2022-10-30T10:11:07;10.40;;;5.00;;
6420;SDS011;3243;50.958;7.012;2022-10-30T10:13:49;10.20;;;5.37;;
6420;SDS011;3243;50.958;7.012;2022-10-30T10:16:28;8.27;;;4.80;;
6420;SDS011;3243;50.958;7.012;2022-10-30T10:21:34;12.70;;;5.37;;
6420;SDS011;3243;50.958;7.012;2022-10-30T10:24:30;10.27;;;5.57;;
6420;SDS011;3243;50.958;7.012;2022-10-30T10:27:04;8.83;;;4.97;;
6420;SDS011;3243;50.958;7.012;2022-10-30T10:38:22;10.37;;;5.00;;
6420;SDS011;3243;50.958;7.012;2022-10-30T10:46:40;14.63;;;4.87;;
6420;SDS011;3243;50.958;7.012;2022-10-30T10:49:45;10.77;;;4.50;;
6420;SDS011;3243;50.958;7.012;2022-10-30T10:52:39;12.73;;;4.80;;
6420;SDS011;3243;50.958;7.012;2022-10-30T10:55:27;12.23;;;4.90;;
6420;SDS011;3243;50.958;7.012;2022-10-30T10:57:58;9.87;;;4.60;;
6420;SDS011;3243;50.958;7.012;2022-10-30T11:00:38;9.77;;;4.90;;
6420;SDS011;3243;50.958;7.012;2022-10-30T11:03:10;9.33;;;4.60;;
6420;SDS011;3243;50.958;7.012;2022-10-30T11:05:45;8.25;;;4.50;;
6420;SDS011;3243;50.958;7.012;2022-10-30T11:08:20;11.00;;;4.70;;
6420;SDS011;3243;50.958;7.012;2022-10-30T11:10:58;13.70;;;4.90;;
6420;SDS011;3243;50.958;7.012;2022-10-30T11:13:28;12.27;;;4.93;;
6420;SDS011;3243;50.958;7.012;2022-10-30T11:15:59;11.63;;;4.93;;
6420;SDS011;3243;50.958;7.012;2022-10-30T11:18:30;13.63;;;5.20;;
6420;SDS011;3243;50.958;7.012;2022-10-30T11:23:40;9.30;;;4.80;;
6420;SDS011;3243;50.958;7.012;2022-10-30T11:31:33;10.95;;;4.70;;
6420;SDS011;3243;50.958;7.012;2022-10-30T11:36:45;8.27;;;4.60;;
6420;SDS011;3243;50.958;7.012;2022-10-30T11:41:47;13.40;;;4.60;;
6420;SDS011;3243;50.958;7.012;2022-10-30T11:44:35;11.35;;;5.20;;
6420;SDS011;3243;50.958;7.012;2022-10-30T11:47:04;7.53;;;3.67;;
6420;SDS011;3243;50.958;7.012;2022-10-30T11:52:05;9.80;;;4.63;;
6420;SDS011;3243;50.958;7.012;2022-10-30T11:54:34;7.88;;;4.50;;
6420;SDS011;3243;50.958;7.012;2022-10-30T11:57:16;12.80;;;3.80;;
6420;SDS011;3243;50.958;7.012;2022-10-30T11:59:55;10.30;;;4.35;;
6420;SDS011;3243;50.958;7.012;2022-10-30T12:02:31;10.73;;;4.05;;
6420;SDS011;3243;50.958;7.012;2022-10-30T12:10:34;11.10;;;4.30;;
6420;SDS011;3243;50.958;7.012;2022-10-30T12:13:17;10.48;;;4.22;;
6420;SDS011;3243;50.958;7.012;2022-10-30T12:15:47;10.05;;;4.07;;
6420;SDS011;3243;50.958;7.012;2022-10-30T12:18:17;11.45;;;4.10;;
6420;SDS011;3243;50.958;7.012;2022-10-30T12:20:49;8.45;;;3.90;;
6420;SDS011;3243;50.958;7.012;2022-10-30T12:23:19;8.68;;;4.68;;
6420;SDS011;3243;50.958;7.012;2022-10-30T12:25:52;11.98;;;4.35;;
6420;SDS011;3243;50.958;7.012;2022-10-30T12:28:22;14.45;;;4.45;;
6420;SDS011;3243;50.958;7.012;2022-10-30T12:33:45;12.52;;;4.28;;
6420;SDS011;3243;50.958;7.012;2022-10-30T12:36:21;10.40;;;4.22;;
6420;SDS011;3243;50.958;7.012;2022-10-30T12:39:08;9.88;;;4.25;;
6420;SDS011;3243;50.958;7.012;2022-10-30T12:44:33;9.52;;;4.22;;
6420;SDS011;3243;50.958;7.012;2022-10-30T12:49:52;10.90;;;4.40;;
6420;SDS011;3243;50.958;7.012;2022-10-30T12:52:42;10.25;;;3.80;;
6420;SDS011;3243;50.958;7.012;2022-10-30T13:01:20;15.02;;;4.18;;
6420;SDS011;3243;50.958;7.012;2022-10-30T13:04:25;10.13;;;4.13;;
6420;SDS011;3243;50.958;7.012;2022-10-30T13:06:57;9.73;;;4.50;;
6420;SDS011;3243;50.958;7.012;2022-10-30T13:12:37;11.50;;;4.07;;
6420;SDS011;3243;50.958;7.012;2022-10-30T13:17:42;12.43;;;4.43;;
6420;SDS011;3243;50.958;7.012;2022-10-30T13:20:11;10.98;;;4.10;;
6420;SDS011;3243;50.958;7.012;2022-10-30T13:33:54;9.77;;;3.83;;
6420;SDS011;3243;50.958;7.012;2022-10-30T13:36:39;9.10;;;3.60;;
6420;SDS011;3243;50.958;7.012;2022-10-30T13:42:07;15.15;;;3.92;;
6420;SDS011;3243;50.958;7.012;2022-10-30T13:44:59;6.95;;;3.53;;
6420;SDS011;3243;50.958;7.012;2022-10-30T13:52:52;8.73;;;3.63;;
6420;SDS011;3243;50.958;7.012;2022-10-30T13:55:30;10.93;;;3.75;;
6420;SDS011;3243;50.958;7.012;2022-10-30T13:58:02;7.18;;;3.80;;
6420;SDS011;3243;50.958;7.012;2022-10-30T14:00:52;10.82;;;3.78;;
6420;SDS011;3243;50.958;7.012;2022-10-30T14:11:40;7.57;;;3.97;;
6420;SDS011;3243;50.958;7.012;2022-10-30T14:14:24;9.05;;;3.70;;
6420;SDS011;3243;50.958;7.012;2022-10-30T14:17:14;11.30;;;3.97;;
6420;SDS011;3243;50.958;7.012;2022-10-30T14:22:37;7.22;;;3.60;;
6420;SDS011;3243;50.958;7.012;2022-10-30T14:25:12;7.60;;;3.78;;
6420;SDS011;3243;50.958;7.012;2022-10-30T14:27:40;9.95;;;3.97;;
6420;SDS011;3243;50.958;7.012;2022-10-30T14:30:17;9.90;;;4.90;;
6420;SDS011;3243;50.958;7.012;2022-10-30T14:32:50;11.30;;;4.28;;
6420;SDS011;3243;50.958;7.012;2022-10-30T14:35:28;8.20;;;4.10;;
6420;SDS011;3243;50.958;7.012;2022-10-30T14:43:08;8.43;;;3.80;;
6420;SDS011;3243;50.958;7.012;2022-10-30T14:45:47;10.60;;;4.13;;
6420;SDS011;3243;50.958;7.012;2022-10-30T14:48:27;10.93;;;4.10;;
6420;SDS011;3243;50.958;7.012;2022-10-30T14:51:15;10.68;;;4.70;;
6420;SDS011;3243;50.958;7.012;2022-10-30T15:06:59;7.53;;;3.60;;
6420;SDS011;3243;50.958;7.012;2022-10-30T15:15:27;11.05;;;4.10;;
6420;SDS011;3243;50.958;7.012;2022-10-30T15:17:56;8.27;;;4.30;;
6420;SDS011;3243;50.958;7.012;2022-10-30T15:20:30;8.90;;;4.47;;
6420;SDS011;3243;50.958;7.012;2022-10-30T15:23:02;7.63;;;4.38;;
6420;SDS011;3243;50.958;7.012;2022-10-30T15:25:38;9.02;;;4.13;;
6420;SDS011;3243;50.958;7.012;2022-10-30T15:28:14;9.88;;;4.40;;
6420;SDS011;3243;50.958;7.012;2022-10-30T15:33:30;14.65;;;5.20;;
6420;SDS011;3243;50.958;7.012;2022-10-30T15:35:58;17.93;;;5.57;;
6420;SDS011;3243;50.958;7.012;2022-10-30T15:38:25;11.82;;;5.78;;
6420;SDS011;3243;50.958;7.012;2022-10-30T15:40:56;15.15;;;5.65;;
6420;SDS011;3243;50.958;7.012;2022-10-30T15:43:34;11.43;;;5.43;;
6420;SDS011;3243;50.958;7.012;2022-10-30T15:46:08;11.87;;;5.50;;
6420;SDS011;3243;50.958;7.012;2022-10-30T15:48:40;13.52;;;6.18;;
6420;SDS011;3243;50.958;7.012;2022-10-30T15:51:19;13.73;;;5.63;;
6420;SDS011;3243;50.958;7.012;2022-10-30T15:53:52;12.20;;;5.60;;
6420;SDS011;3243;50.958;7.012;2022-10-30T15:56:34;9.83;;;5.33;;
6420;SDS011;3243;50.958;7.012;2022-10-30T15:59:28;14.00;;;7.20;;
6420;SDS011;3243;50.958;7.012;2022-10-30T16:01:57;20.07;;;13.57;;
6420;SDS011;3243;50.958;7.012;2022-10-30T16:04:25;19.60;;;11.95;;
6420;SDS011;3243;50.958;7.012;2022-10-30T16:06:58;22.30;;;13.37;;
6420;SDS011;3243;50.958;7.012;2022-10-30T16:09:26;16.33;;;8.80;;
6420;SDS011;3243;50.958;7.012;2022-10-30T16:11:56;14.50;;;7.33;;
6420;SDS011;3243;50.958;7.012;2022-10-30T16:14:25;12.25;;;6.13;;
6420;SDS011;3243;50.958;7.012;2022-10-30T16:16:53;11.07;;;5.27;;
6420;SDS011;3243;50.958;7.012;2022-10-30T16:21:56;9.37;;;5.03;;
6420;SDS011;3243;50.958;7.012;2022-10-30T16:24:33;10.90;;;5.50;;
6420;SDS011;3243;50.958;7.012;2022-10-30T16:27:02;9.20;;;5.70;;
6420;SDS011;3243;50.958;7.012;2022-10-30T16:29:31;13.70;;;6.10;;
6420;SDS011;3243;50.958;7.012;2022-10-30T16:31:58;10.73;;;6.20;;
6420;SDS011;3243;50.958;7.012;2022-10-30T16:34:32;12.17;;;7.93;;
6420;SDS011;3243;50.958;7.012;2022-10-30T16:37:01;15.50;;;8.63;;
6420;SDS011;3243;50.958;7.012;2022-10-30T16:39:30;12.73;;;7.63;;
6420;SDS011;3243;50.958;7.012;2022-10-30T16:41:59;12.47;;;9.03;;
6420;SDS011;3243;50.958;7.012;2022-10-30T16:44:29;11.97;;;9.07;;
6420;SDS011;3243;50.958;7.012;2022-10-30T16:49:46;12.40;;;5.80;;
6420;SDS011;3243;50.958;7.012;2022-10-30T16:52:40;13.77;;;9.73;;
6420;SDS011;3243;50.958;7.012;2022-10-30T16:55:11;12.73;;;7.67;;
6420;SDS011;3243;50.958;7.012;2022-10-30T16:57:45;15.10;;;9.50;;
6420;SDS011;3243;50.958;7.012;2022-10-30T17:00:22;9.43;;;5.60;;
6420;SDS011;3243;50.958;7.012;2022-10-30T17:02:53;12.90;;;6.30;;
6420;SDS011;3243;50.958;7.012;2022-10-30T17:05:23;11.00;;;5.93;;
6420;SDS011;3243;50.958;7.012;2022-10-30T17:08:02;14.37;;;7.87;;
6420;SDS011;3243;50.958;7.012;2022-10-30T17:10:31;14.40;;;8.10;;
6420;SDS011;3243;50.958;7.012;2022-10-30T17:18:50;13.53;;;7.90;;
6420;SDS011;3243;50.958;7.012;2022-10-30T17:21:19;17.40;;;8.40;;
6420;SDS011;3243;50.958;7.012;2022-10-30T17:23:51;12.93;;;7.73;;
6420;SDS011;3243;50.958;7.012;2022-10-30T17:26:21;14.87;;;7.40;;
6420;SDS011;3243;50.958;7.012;2022-10-30T17:28:48;12.80;;;6.70;;
6420;SDS011;3243;50.958;7.012;2022-10-30T17:34:11;12.03;;;6.33;;
6420;SDS011;3243;50.958;7.012;2022-10-30T17:36:41;19.40;;;10.13;;
6420;SDS011;3243;50.958;7.012;2022-10-30T17:39:09;21.97;;;13.30;;
6420;SDS011;3243;50.958;7.012;2022-10-30T17:41:36;14.37;;;9.10;;
6420;SDS011;3243;50.958;7.012;2022-10-30T17:44:04;17.13;;;7.27;;
6420;SDS011;3243;50.958;7.012;2022-10-30T17:46:31;13.60;;;7.77;;
6420;SDS011;3243;50.958;7.012;2022-10-30T17:48:58;15.80;;;8.93;;
6420;SDS011;3243;50.958;7.012;2022-10-30T17:51:25;14.33;;;8.70;;
6420;SDS011;3243;50.958;7.012;2022-10-30T17:53:54;14.30;;;8.03;;
6420;SDS011;3243;50.958;7.012;2022-10-30T17:56:23;13.33;;;8.10;;
6420;SDS011;3243;50.958;7.012;2022-10-30T17:58:53;14.53;;;7.77;;
6420;SDS011;3243;50.958;7.012;2022-10-30T18:01:21;13.83;;;8.00;;
6420;SDS011;3243;50.958;7.012;2022-10-30T18:03:50;14.30;;;8.33;;
6420;SDS011;3243;50.958;7.012;2022-10-30T18:06:20;15.30;;;7.47;;
6420;SDS011;3243;50.958;7.012;2022-10-30T18:08:50;15.50;;;8.53;;
6420;SDS011;3243;50.958;7.012;2022-10-30T18:11:17;15.73;;;8.27;;
6420;SDS011;3243;50.958;7.012;2022-10-30T18:13:46;15.47;;;7.73;;
6420;SDS011;3243;50.958;7.012;2022-10-30T18:16:14;13.30;;;7.00;;